Other Surface Observations
Issued by NWS Missoula, MT

Home | Current Version | Previous Version | Text Only | Print | Product List | Glossary On
Versions: 1 2 3 4 5 6 7 8 9 10 11 12 13 14 15 16 17 18 19 20 21 22 23 24 25 26 27 28 29 30 31 32 33 34 35 36 37 38 39 40 41 42 43 44 45 46 47 48 49 50
000
SXUS55 KMSO 231623
OSOMSO
MONTANA AWOS SUMMARY
NATIONAL WEATHER SERVICE MISSOULA MT
1023 AM MDT TUE SEP 23 2014

Montana AWOS Reports

MALTA       |KM75 231555Z AUTO 11004KT 3SM 15/11 A2985 RMK AO1 T01500106
SCOBEY      |K9S2 231555Z AUTO 00000KT 25SM 18/09 A2986 RMK AO1 T01780089
LAUREL      |K6S8 231615Z AUTO 20009G13KT 40SM 22/09 A3000 RMK AO1 T02170089
ROUNDUP     |KRPX 231615Z AUTO 20007KT 40SM 21/11 A2990 RMK AO1 T02060111




USA.gov is the U.S. government's official web portal to all federal, state and local government web resources and services.